sensor_id;sensor_type;location;lat;lon;timestamp;pressure;altitude;pressure_sealevel;temperature;humidity
40940;BME280;26666;50.156;7.700;2023-05-29T00:02:09;100733.72;;;15.63;77.19
40940;BME280;26666;50.156;7.700;2023-05-29T00:07:13;100743.16;;;15.57;77.37
40940;BME280;26666;50.156;7.700;2023-05-29T00:12:14;100738.81;;;15.56;77.18
40940;BME280;26666;50.156;7.700;2023-05-29T00:17:16;100734.38;;;15.47;77.61
40940;BME280;26666;50.156;7.700;2023-05-29T00:22:19;100732.72;;;15.46;77.77
40940;BME280;26666;50.156;7.700;2023-05-29T00:27:21;100725.72;;;15.45;77.50
40940;BME280;26666;50.156;7.700;2023-05-29T00:32:23;100727.63;;;15.34;77.63
40940;BME280;26666;50.156;7.700;2023-05-29T00:37:26;100732.44;;;15.31;77.60
40940;BME280;26666;50.156;7.700;2023-05-29T00:42:28;100728.13;;;15.30;77.42
40940;BME280;26666;50.156;7.700;2023-05-29T00:47:29;100740.06;;;15.26;77.22
40940;BME280;26666;50.156;7.700;2023-05-29T00:52:33;100744.09;;;15.30;77.00
40940;BME280;26666;50.156;7.700;2023-05-29T00:57:34;100741.66;;;15.18;77.75
40940;BME280;26666;50.156;7.700;2023-05-29T01:02:37;100740.63;;;15.19;77.65
40940;BME280;26666;50.156;7.700;2023-05-29T01:07:41;100747.38;;;15.24;77.20
40940;BME280;26666;50.156;7.700;2023-05-29T01:12:47;100748.88;;;15.08;77.48
40940;BME280;26666;50.156;7.700;2023-05-29T01:18:05;100758.84;;;15.06;77.69
40940;BME280;26666;50.156;7.700;2023-05-29T01:28:57;100752.38;;;15.09;78.79
40940;BME280;26666;50.156;7.700;2023-05-29T01:34:01;100755.09;;;14.99;78.94
40940;BME280;26666;50.156;7.700;2023-05-29T01:39:03;100746.56;;;14.95;78.83
40940;BME280;26666;50.156;7.700;2023-05-29T01:44:07;100748.06;;;14.98;77.90
40940;BME280;26666;50.156;7.700;2023-05-29T01:49:10;100741.63;;;14.83;78.98
40940;BME280;26666;50.156;7.700;2023-05-29T01:54:12;100743.38;;;14.92;78.40
40940;BME280;26666;50.156;7.700;2023-05-29T01:59:15;100741.75;;;14.81;78.00
40940;BME280;26666;50.156;7.700;2023-05-29T02:04:17;100747.22;;;14.79;78.04
40940;BME280;26666;50.156;7.700;2023-05-29T02:09:19;100742.78;;;14.70;78.24
40940;BME280;26666;50.156;7.700;2023-05-29T02:14:22;100747.03;;;14.63;78.52
40940;BME280;26666;50.156;7.700;2023-05-29T02:19:24;100736.25;;;14.65;78.76
40940;BME280;26666;50.156;7.700;2023-05-29T02:24:26;100733.59;;;14.65;78.74
40940;BME280;26666;50.156;7.700;2023-05-29T02:29:29;100736.97;;;14.57;79.36
40940;BME280;26666;50.156;7.700;2023-05-29T02:34:31;100748.88;;;14.53;80.06
40940;BME280;26666;50.156;7.700;2023-05-29T02:39:32;100747.34;;;14.60;79.09
40940;BME280;26666;50.156;7.700;2023-05-29T02:44:35;100743.56;;;14.53;78.83
40940;BME280;26666;50.156;7.700;2023-05-29T02:49:37;100746.13;;;14.45;78.29
40940;BME280;26666;50.156;7.700;2023-05-29T02:54:39;100744.38;;;14.53;77.76
40940;BME280;26666;50.156;7.700;2023-05-29T02:59:42;100747.81;;;14.46;78.18
40940;BME280;26666;50.156;7.700;2023-05-29T03:04:44;100756.19;;;14.41;77.88
40940;BME280;26666;50.156;7.700;2023-05-29T03:09:45;100755.97;;;14.34;77.80
40940;BME280;26666;50.156;7.700;2023-05-29T03:14:48;100767.84;;;14.40;78.16
40940;BME280;26666;50.156;7.700;2023-05-29T03:19:50;100773.47;;;14.27;78.75
40940;BME280;26666;50.156;7.700;2023-05-29T03:24:52;100772.91;;;14.24;79.10
40940;BME280;26666;50.156;7.700;2023-05-29T03:29:55;100779.06;;;14.24;79.29
40940;BME280;26666;50.156;7.700;2023-05-29T03:34:57;100781.31;;;14.29;79.57
40940;BME280;26666;50.156;7.700;2023-05-29T03:39:58;100784.81;;;14.19;80.09
40940;BME280;26666;50.156;7.700;2023-05-29T03:45:01;100778.09;;;14.25;80.47
40940;BME280;26666;50.156;7.700;2023-05-29T03:50:04;100781.84;;;14.32;80.36
40940;BME280;26666;50.156;7.700;2023-05-29T03:55:09;100792.09;;;14.17;81.42
40940;BME280;26666;50.156;7.700;2023-05-29T04:00:13;100791.66;;;14.22;82.47
40940;BME280;26666;50.156;7.700;2023-05-29T04:05:15;100805.38;;;14.17;82.78
40940;BME280;26666;50.156;7.700;2023-05-29T04:10:17;100821.03;;;14.30;83.04
40940;BME280;26666;50.156;7.700;2023-05-29T04:15:20;100832.50;;;14.31;82.71
40940;BME280;26666;50.156;7.700;2023-05-29T04:20:21;100842.13;;;14.32;83.33
40940;BME280;26666;50.156;7.700;2023-05-29T04:25:23;100835.13;;;14.40;82.07
40940;BME280;26666;50.156;7.700;2023-05-29T04:30:26;100841.69;;;14.46;83.29
40940;BME280;26666;50.156;7.700;2023-05-29T04:35:28;100847.59;;;14.40;83.07
40940;BME280;26666;50.156;7.700;2023-05-29T04:40:30;100854.00;;;14.37;84.37
40940;BME280;26666;50.156;7.700;2023-05-29T04:45:33;100856.94;;;14.44;84.13
40940;BME280;26666;50.156;7.700;2023-05-29T04:50:35;100867.84;;;14.41;85.27
40940;BME280;26666;50.156;7.700;2023-05-29T04:55:37;100872.00;;;14.63;84.69
40940;BME280;26666;50.156;7.700;2023-05-29T05:00:40;100876.16;;;14.85;83.61
40940;BME280;26666;50.156;7.700;2023-05-29T05:05:41;100891.44;;;15.38;82.65
40940;BME280;26666;50.156;7.700;2023-05-29T05:10:43;100882.88;;;15.99;78.90
40940;BME280;26666;50.156;7.700;2023-05-29T05:15:46;100888.59;;;16.48;77.42
40940;BME280;26666;50.156;7.700;2023-05-29T05:20:48;100886.91;;;16.99;76.19
40940;BME280;26666;50.156;7.700;2023-05-29T05:25:50;100901.09;;;17.50;74.39
40940;BME280;26666;50.156;7.700;2023-05-29T05:30:53;100899.84;;;17.87;73.72
40940;BME280;26666;50.156;7.700;2023-05-29T05:35:55;100886.47;;;18.28;72.07
40940;BME280;26666;50.156;7.700;2023-05-29T05:40:57;100891.25;;;18.66;72.16
40940;BME280;26666;50.156;7.700;2023-05-29T05:46:00;100880.66;;;19.05;72.14
40940;BME280;26666;50.156;7.700;2023-05-29T05:51:02;100887.31;;;19.41;71.68
40940;BME280;26666;50.156;7.700;2023-05-29T05:56:04;100883.06;;;19.55;71.41
40940;BME280;26666;50.156;7.700;2023-05-29T06:01:07;100876.00;;;20.08;69.62
40940;BME280;26666;50.156;7.700;2023-05-29T06:06:08;100887.53;;;20.32;70.56
40940;BME280;26666;50.156;7.700;2023-05-29T06:11:10;100882.28;;;20.53;69.74
40940;BME280;26666;50.156;7.700;2023-05-29T06:16:13;100888.00;;;20.50;69.60
40940;BME280;26666;50.156;7.700;2023-05-29T06:21:15;100879.63;;;20.15;70.65
40940;BME280;26666;50.156;7.700;2023-05-29T06:26:17;100894.72;;;20.99;66.89
40940;BME280;26666;50.156;7.700;2023-05-29T06:31:20;100890.91;;;21.08;68.03
40940;BME280;26666;50.156;7.700;2023-05-29T06:36:22;100887.56;;;21.21;66.65
40940;BME280;26666;50.156;7.700;2023-05-29T06:41:23;100890.66;;;20.88;66.14
40940;BME280;26666;50.156;7.700;2023-05-29T06:46:26;100889.75;;;21.32;65.42
40940;BME280;26666;50.156;7.700;2023-05-29T06:51:28;100894.00;;;21.26;65.61
40940;BME280;26666;50.156;7.700;2023-05-29T06:56:30;100895.19;;;21.75;63.24
40940;BME280;26666;50.156;7.700;2023-05-29T07:01:33;100901.88;;;21.79;62.98
40940;BME280;26666;50.156;7.700;2023-05-29T07:06:35;100896.75;;;21.84;63.12
40940;BME280;26666;50.156;7.700;2023-05-29T07:11:38;100904.31;;;21.74;62.85
40940;BME280;26666;50.156;7.700;2023-05-29T07:16:41;100899.88;;;21.88;62.03
40940;BME280;26666;50.156;7.700;2023-05-29T07:21:42;100900.97;;;22.15;61.50
40940;BME280;26666;50.156;7.700;2023-05-29T07:26:44;100889.72;;;22.05;61.88
40940;BME280;26666;50.156;7.700;2023-05-29T07:31:47;100897.59;;;22.28;60.45
40940;BME280;26666;50.156;7.700;2023-05-29T07:36:57;100894.06;;;22.56;60.14
40940;BME280;26666;50.156;7.700;2023-05-29T07:41:59;100900.34;;;21.92;63.58
40940;BME280;26666;50.156;7.700;2023-05-29T07:47:02;100905.31;;;21.95;63.24
40940;BME280;26666;50.156;7.700;2023-05-29T07:52:04;100902.72;;;22.01;62.95
40940;BME280;26666;50.156;7.700;2023-05-29T07:57:06;100894.19;;;21.76;63.60
40940;BME280;26666;50.156;7.700;2023-05-29T08:02:09;100895.97;;;21.91;60.74
40940;BME280;26666;50.156;7.700;2023-05-29T08:07:11;100893.16;;;22.20;60.57
40940;BME280;26666;50.156;7.700;2023-05-29T08:12:13;100893.03;;;22.07;60.40
40940;BME280;26666;50.156;7.700;2023-05-29T08:17:16;100897.47;;;21.93;61.84
40940;BME280;26666;50.156;7.700;2023-05-29T08:22:19;100896.56;;;22.08;59.59
40940;BME280;26666;50.156;7.700;2023-05-29T08:27:21;100895.22;;;21.97;60.72
40940;BME280;26666;50.156;7.700;2023-05-29T08:32:24;100889.84;;;21.39;62.59
40940;BME280;26666;50.156;7.700;2023-05-29T08:37:25;100895.00;;;21.55;62.42
40940;BME280;26666;50.156;7.700;2023-05-29T08:42:29;100889.56;;;21.49;61.99
40940;BME280;26666;50.156;7.700;2023-05-29T08:47:36;100889.75;;;21.32;63.22
40940;BME280;26666;50.156;7.700;2023-05-29T08:52:40;100890.97;;;21.30;66.44
40940;BME280;26666;50.156;7.700;2023-05-29T08:57:42;100882.69;;;20.95;66.93
40940;BME280;26666;50.156;7.700;2023-05-29T09:02:45;100892.59;;;20.94;65.94
40940;BME280;26666;50.156;7.700;2023-05-29T09:07:47;100883.50;;;21.10;64.20
40940;BME280;26666;50.156;7.700;2023-05-29T09:12:49;100885.94;;;20.75;67.68
40940;BME280;26666;50.156;7.700;2023-05-29T09:17:53;100876.59;;;20.86;70.06
40940;BME280;26666;50.156;7.700;2023-05-29T09:22:57;100887.81;;;20.52;70.43
40940;BME280;26666;50.156;7.700;2023-05-29T09:28:00;100891.97;;;20.54;70.17
40940;BME280;26666;50.156;7.700;2023-05-29T09:33:05;100890.47;;;20.37;72.87
40940;BME280;26666;50.156;7.700;2023-05-29T09:38:08;100884.03;;;20.46;72.23
40940;BME280;26666;50.156;7.700;2023-05-29T09:43:11;100886.44;;;20.56;71.42
40940;BME280;26666;50.156;7.700;2023-05-29T09:48:15;100881.72;;;20.58;72.90
40940;BME280;26666;50.156;7.700;2023-05-29T09:53:17;100870.69;;;20.53;71.58
40940;BME280;26666;50.156;7.700;2023-05-29T09:58:20;100871.16;;;20.41;72.94
40940;BME280;26666;50.156;7.700;2023-05-29T10:03:23;100860.97;;;20.52;71.96
40940;BME280;26666;50.156;7.700;2023-05-29T10:08:26;100861.91;;;20.59;71.30
40940;BME280;26666;50.156;7.700;2023-05-29T10:13:33;100865.69;;;20.35;73.11
40940;BME280;26666;50.156;7.700;2023-05-29T10:18:39;100863.19;;;20.48;71.58
40940;BME280;26666;50.156;7.700;2023-05-29T10:23:46;100872.72;;;20.51;71.94
40940;BME280;26666;50.156;7.700;2023-05-29T10:28:54;100878.47;;;20.47;69.03
40940;BME280;26666;50.156;7.700;2023-05-29T10:34:07;100863.50;;;20.53;72.86
40940;BME280;26666;50.156;7.700;2023-05-29T10:39:10;100861.06;;;20.43;74.06
40940;BME280;26666;50.156;7.700;2023-05-29T10:44:39;100849.81;;;20.78;64.84
40940;BME280;26666;50.156;7.700;2023-05-29T10:49:50;100866.53;;;20.50;59.99
40940;BME280;26666;50.156;7.700;2023-05-29T10:54:54;100851.91;;;20.38;60.79
40940;BME280;26666;50.156;7.700;2023-05-29T11:00:02;100845.97;;;20.27;60.68
40940;BME280;26666;50.156;7.700;2023-05-29T11:05:18;100847.19;;;20.40;57.03
40940;BME280;26666;50.156;7.700;2023-05-29T11:10:41;100860.75;;;20.08;58.51
40940;BME280;26666;50.156;7.700;2023-05-29T11:15:43;100848.78;;;20.49;54.54
40940;BME280;26666;50.156;7.700;2023-05-29T11:20:50;100839.28;;;20.23;56.22
40940;BME280;26666;50.156;7.700;2023-05-29T11:25:53;100845.78;;;20.14;58.42
40940;BME280;26666;50.156;7.700;2023-05-29T11:30:56;100830.50;;;20.15;55.32
40940;BME280;26666;50.156;7.700;2023-05-29T11:36:02;100826.06;;;20.37;55.71
40940;BME280;26666;50.156;7.700;2023-05-29T11:41:04;100822.38;;;20.38;53.63
40940;BME280;26666;50.156;7.700;2023-05-29T11:46:16;100821.41;;;20.16;55.08
40940;BME280;26666;50.156;7.700;2023-05-29T11:51:19;100832.19;;;20.31;55.08
40940;BME280;26666;50.156;7.700;2023-05-29T11:56:21;100820.22;;;20.33;56.29
40940;BME280;26666;50.156;7.700;2023-05-29T12:01:23;100821.97;;;20.11;56.86
40940;BME280;26666;50.156;7.700;2023-05-29T12:06:32;100826.78;;;20.01;56.52
40940;BME280;26666;50.156;7.700;2023-05-29T12:11:34;100818.69;;;20.24;55.34
40940;BME280;26666;50.156;7.700;2023-05-29T12:16:36;100824.94;;;20.16;55.64
40940;BME280;26666;50.156;7.700;2023-05-29T12:21:42;100819.72;;;20.00;57.20
40940;BME280;26666;50.156;7.700;2023-05-29T12:26:44;100809.25;;;19.90;57.12
40940;BME280;26666;50.156;7.700;2023-05-29T12:31:45;100812.56;;;19.77;60.94
40940;BME280;26666;50.156;7.700;2023-05-29T12:36:49;100800.03;;;19.93;61.39
40940;BME280;26666;50.156;7.700;2023-05-29T12:41:54;100803.66;;;19.77;60.86
40940;BME280;26666;50.156;7.700;2023-05-29T12:46:56;100799.72;;;19.87;66.37
40940;BME280;26666;50.156;7.700;2023-05-29T12:52:04;100802.50;;;19.79;65.31
40940;BME280;26666;50.156;7.700;2023-05-29T12:57:07;100811.63;;;20.08;57.94
40940;BME280;26666;50.156;7.700;2023-05-29T13:02:09;100803.63;;;19.85;60.14
40940;BME280;26666;50.156;7.700;2023-05-29T13:07:12;100804.34;;;19.70;67.23
40940;BME280;26666;50.156;7.700;2023-05-29T13:12:14;100803.16;;;19.81;72.57
40940;BME280;26666;50.156;7.700;2023-05-29T13:17:15;100795.75;;;19.83;74.60
40940;BME280;26666;50.156;7.700;2023-05-29T13:22:18;100798.91;;;19.87;72.12
40940;BME280;26666;50.156;7.700;2023-05-29T13:27:20;100785.50;;;19.87;74.62
40940;BME280;26666;50.156;7.700;2023-05-29T13:32:22;100778.47;;;19.86;72.93
40940;BME280;26666;50.156;7.700;2023-05-29T13:37:25;100779.00;;;19.81;74.63
40940;BME280;26666;50.156;7.700;2023-05-29T13:42:27;100792.16;;;19.68;76.76
40940;BME280;26666;50.156;7.700;2023-05-29T13:47:29;100795.81;;;19.75;76.43
40940;BME280;26666;50.156;7.700;2023-05-29T13:52:32;100795.56;;;19.85;73.95
40940;BME280;26666;50.156;7.700;2023-05-29T13:57:34;100795.28;;;19.80;72.54
40940;BME280;26666;50.156;7.700;2023-05-29T14:02:36;100782.25;;;19.68;72.60
40940;BME280;26666;50.156;7.700;2023-05-29T14:07:39;100777.88;;;19.76;74.32
40940;BME280;26666;50.156;7.700;2023-05-29T14:12:41;100775.38;;;19.74;78.60
40940;BME280;26666;50.156;7.700;2023-05-29T14:17:42;100770.97;;;19.81;77.51
40940;BME280;26666;50.156;7.700;2023-05-29T14:22:45;100760.41;;;19.80;78.78
40940;BME280;26666;50.156;7.700;2023-05-29T14:27:49;100750.59;;;19.72;74.02
40940;BME280;26666;50.156;7.700;2023-05-29T14:32:50;100758.31;;;19.67;77.13
40940;BME280;26666;50.156;7.700;2023-05-29T14:37:53;100753.59;;;19.69;76.76
40940;BME280;26666;50.156;7.700;2023-05-29T14:42:55;100745.25;;;19.72;77.96
40940;BME280;26666;50.156;7.700;2023-05-29T14:47:57;100761.97;;;19.74;78.42
40940;BME280;26666;50.156;7.700;2023-05-29T14:53:00;100753.59;;;19.77;78.22
40940;BME280;26666;50.156;7.700;2023-05-29T14:58:02;100748.31;;;19.61;79.17
40940;BME280;26666;50.156;7.700;2023-05-29T15:03:03;100767.94;;;19.61;79.12
40940;BME280;26666;50.156;7.700;2023-05-29T15:08:07;100759.28;;;19.74;76.93
40940;BME280;26666;50.156;7.700;2023-05-29T15:13:08;100758.88;;;19.62;78.67
40940;BME280;26666;50.156;7.700;2023-05-29T15:18:10;100755.06;;;19.57;80.70
40940;BME280;26666;50.156;7.700;2023-05-29T15:23:13;100758.38;;;19.59;81.53
40940;BME280;26666;50.156;7.700;2023-05-29T15:28:15;100750.91;;;19.69;79.70
40940;BME280;26666;50.156;7.700;2023-05-29T15:33:18;100749.78;;;19.86;79.30
40940;BME280;26666;50.156;7.700;2023-05-29T15:38:21;100750.03;;;19.77;80.25
40940;BME280;26666;50.156;7.700;2023-05-29T15:43:23;100751.25;;;19.74;81.50
40940;BME280;26666;50.156;7.700;2023-05-29T15:48:24;100752.84;;;19.60;82.17
40940;BME280;26666;50.156;7.700;2023-05-29T15:53:27;100751.72;;;19.55;83.41
40940;BME280;26666;50.156;7.700;2023-05-29T15:58:31;100753.84;;;19.59;80.60
40940;BME280;26666;50.156;7.700;2023-05-29T16:03:33;100756.19;;;19.62;81.13
40940;BME280;26666;50.156;7.700;2023-05-29T16:08:36;100752.56;;;19.55;79.65
40940;BME280;26666;50.156;7.700;2023-05-29T16:13:38;100757.63;;;19.50;81.11
40940;BME280;26666;50.156;7.700;2023-05-29T16:18:40;100762.13;;;19.49;76.66
40940;BME280;26666;50.156;7.700;2023-05-29T16:23:43;100756.13;;;19.47;77.30
40940;BME280;26666;50.156;7.700;2023-05-29T16:28:44;100761.22;;;19.42;78.95
40940;BME280;26666;50.156;7.700;2023-05-29T16:33:46;100758.78;;;19.33;79.46
40940;BME280;26666;50.156;7.700;2023-05-29T16:38:50;100761.81;;;19.29;81.03
40940;BME280;26666;50.156;7.700;2023-05-29T16:43:51;100753.09;;;19.27;84.35
40940;BME280;26666;50.156;7.700;2023-05-29T16:48:53;100745.25;;;19.26;78.56
40940;BME280;26666;50.156;7.700;2023-05-29T16:53:56;100748.28;;;19.23;77.20
40940;BME280;26666;50.156;7.700;2023-05-29T16:58:58;100751.63;;;19.25;74.70
40940;BME280;26666;50.156;7.700;2023-05-29T17:04:00;100750.50;;;19.19;79.25
40940;BME280;26666;50.156;7.700;2023-05-29T17:09:03;100750.31;;;19.21;77.03
40940;BME280;26666;50.156;7.700;2023-05-29T17:14:05;100751.25;;;19.28;73.14
40940;BME280;26666;50.156;7.700;2023-05-29T17:19:06;100754.66;;;19.22;72.00
40940;BME280;26666;50.156;7.700;2023-05-29T17:24:10;100763.06;;;19.19;75.29
40940;BME280;26666;50.156;7.700;2023-05-29T17:29:11;100758.88;;;19.16;74.71
40940;BME280;26666;50.156;7.700;2023-05-29T17:34:16;100767.78;;;19.08;77.58
40940;BME280;26666;50.156;7.700;2023-05-29T17:39:19;100761.94;;;19.13;77.41
40940;BME280;26666;50.156;7.700;2023-05-29T17:44:21;100774.78;;;19.18;74.41
40940;BME280;26666;50.156;7.700;2023-05-29T17:49:23;100782.69;;;19.11;74.57
40940;BME280;26666;50.156;7.700;2023-05-29T17:54:26;100782.50;;;19.13;73.81
40940;BME280;26666;50.156;7.700;2023-05-29T17:59:28;100785.53;;;19.09;75.13
40940;BME280;26666;50.156;7.700;2023-05-29T18:04:30;100790.19;;;19.16;73.74
40940;BME280;26666;50.156;7.700;2023-05-29T18:09:33;100792.75;;;19.09;75.93
40940;BME280;26666;50.156;7.700;2023-05-29T18:14:34;100797.13;;;19.02;76.22
40940;BME280;26666;50.156;7.700;2023-05-29T18:19:36;100809.50;;;19.03;76.06
40940;BME280;26666;50.156;7.700;2023-05-29T18:24:39;100806.69;;;18.96;79.86
40940;BME280;26666;50.156;7.700;2023-05-29T18:29:41;100810.03;;;18.98;78.41
40940;BME280;26666;50.156;7.700;2023-05-29T18:34:43;100808.19;;;18.99;78.45
40940;BME280;26666;50.156;7.700;2023-05-29T18:39:46;100814.25;;;18.92;78.83
40940;BME280;26666;50.156;7.700;2023-05-29T18:44:47;100817.94;;;18.91;81.02
40940;BME280;26666;50.156;7.700;2023-05-29T18:49:49;100816.09;;;18.92;79.21
40940;BME280;26666;50.156;7.700;2023-05-29T18:54:52;100826.97;;;18.90;78.56
40940;BME280;26666;50.156;7.700;2023-05-29T18:59:54;100833.16;;;18.91;75.77
40940;BME280;26666;50.156;7.700;2023-05-29T19:04:56;100835.38;;;18.87;77.56
40940;BME280;26666;50.156;7.700;2023-05-29T19:09:59;100835.38;;;18.87;75.91
40940;BME280;26666;50.156;7.700;2023-05-29T19:15:01;100856.63;;;18.81;77.38
40940;BME280;26666;50.156;7.700;2023-05-29T19:20:03;100866.81;;;18.77;77.94
40940;BME280;26666;50.156;7.700;2023-05-29T19:25:06;100869.84;;;18.74;78.34
40940;BME280;26666;50.156;7.700;2023-05-29T19:30:10;100870.69;;;18.75;78.06
40940;BME280;26666;50.156;7.700;2023-05-29T19:35:12;100883.06;;;18.67;77.34
40940;BME280;26666;50.156;7.700;2023-05-29T19:40:15;100889.59;;;18.65;76.51
40940;BME280;26666;50.156;7.700;2023-05-29T19:45:17;100901.13;;;18.65;74.10
40940;BME280;26666;50.156;7.700;2023-05-29T19:50:19;100906.84;;;18.62;73.78
40940;BME280;26666;50.156;7.700;2023-05-29T19:55:22;100909.34;;;18.64;76.70
40940;BME280;26666;50.156;7.700;2023-05-29T20:00:24;100917.72;;;18.61;76.92
40940;BME280;26666;50.156;7.700;2023-05-29T20:05:25;100926.25;;;18.64;75.68
40940;BME280;26666;50.156;7.700;2023-05-29T20:10:29;100926.56;;;18.61;75.38
40940;BME280;26666;50.156;7.700;2023-05-29T20:15:30;100937.44;;;18.60;75.83
40940;BME280;26666;50.156;7.700;2023-05-29T20:20:32;100943.31;;;18.55;76.20
40940;BME280;26666;50.156;7.700;2023-05-29T20:25:35;100956.03;;;18.53;76.04
40940;BME280;26666;50.156;7.700;2023-05-29T20:30:37;100962.72;;;18.49;75.95
40940;BME280;26666;50.156;7.700;2023-05-29T20:35:39;100959.56;;;18.37;76.29
40940;BME280;26666;50.156;7.700;2023-05-29T20:40:42;100966.25;;;18.41;79.37
40940;BME280;26666;50.156;7.700;2023-05-29T20:45:44;100972.78;;;18.39;76.43
40940;BME280;26666;50.156;7.700;2023-05-29T20:50:46;100968.94;;;18.33;76.75
40940;BME280;26666;50.156;7.700;2023-05-29T20:55:49;100980.09;;;18.28;76.51
40940;BME280;26666;50.156;7.700;2023-05-29T21:00:51;100988.63;;;18.24;76.59
40940;BME280;26666;50.156;7.700;2023-05-29T21:05:52;100985.78;;;18.17;76.84
40940;BME280;26666;50.156;7.700;2023-05-29T21:10:55;100993.78;;;18.09;77.00
40940;BME280;26666;50.156;7.700;2023-05-29T21:15:58;100995.28;;;18.03;77.41
40940;BME280;26666;50.156;7.700;2023-05-29T21:21:00;100989.09;;;17.95;77.47
40940;BME280;26666;50.156;7.700;2023-05-29T21:26:03;100992.94;;;17.92;77.32
40940;BME280;26666;50.156;7.700;2023-05-29T21:31:05;100996.44;;;17.84;77.14
40940;BME280;26666;50.156;7.700;2023-05-29T21:36:08;100993.22;;;17.81;77.72
40940;BME280;26666;50.156;7.700;2023-05-29T21:41:11;100996.69;;;17.73;78.12
40940;BME280;26666;50.156;7.700;2023-05-29T21:46:13;101000.69;;;17.69;77.12
40940;BME280;26666;50.156;7.700;2023-05-29T21:51:17;101010.50;;;17.60;78.65
40940;BME280;26666;50.156;7.700;2023-05-29T21:56:21;101009.31;;;17.54;78.07
40940;BME280;26666;50.156;7.700;2023-05-29T22:01:22;101008.97;;;17.49;78.87
40940;BME280;26666;50.156;7.700;2023-05-29T22:06:24;101022.66;;;17.46;78.51
40940;BME280;26666;50.156;7.700;2023-05-29T22:11:27;101018.78;;;17.41;78.66
40940;BME280;26666;50.156;7.700;2023-05-29T22:16:29;101034.13;;;17.39;78.39
40940;BME280;26666;50.156;7.700;2023-05-29T22:21:31;101040.94;;;17.33;78.44
40940;BME280;26666;50.156;7.700;2023-05-29T22:26:34;101030.75;;;17.28;79.28
40940;BME280;26666;50.156;7.700;2023-05-29T22:31:37;101035.25;;;17.28;78.87
40940;BME280;26666;50.156;7.700;2023-05-29T22:36:39;101027.53;;;17.25;79.10
40940;BME280;26666;50.156;7.700;2023-05-29T22:41:42;101032.22;;;17.23;78.79
40940;BME280;26666;50.156;7.700;2023-05-29T22:46:44;101042.22;;;17.21;78.32
40940;BME280;26666;50.156;7.700;2023-05-29T22:51:46;101041.72;;;17.25;77.23
40940;BME280;26666;50.156;7.700;2023-05-29T22:56:49;101048.75;;;17.26;76.04
40940;BME280;26666;50.156;7.700;2023-05-29T23:01:50;101044.56;;;17.24;76.63
40940;BME280;26666;50.156;7.700;2023-05-29T23:06:52;101049.31;;;17.12;76.58
40940;BME280;26666;50.156;7.700;2023-05-29T23:11:55;101060.00;;;17.12;76.72
40940;BME280;26666;50.156;7.700;2023-05-29T23:16:57;101064.84;;;17.08;77.11
40940;BME280;26666;50.156;7.700;2023-05-29T23:21:59;101062.28;;;16.99;76.71
40940;BME280;26666;50.156;7.700;2023-05-29T23:27:02;101065.44;;;17.02;76.85
40940;BME280;26666;50.156;7.700;2023-05-29T23:32:05;101079.06;;;16.91;75.71
40940;BME280;26666;50.156;7.700;2023-05-29T23:37:07;101077.44;;;16.98;75.99
40940;BME280;26666;50.156;7.700;2023-05-29T23:42:10;101079.75;;;16.93;75.18
40940;BME280;26666;50.156;7.700;2023-05-29T23:47:12;101083.75;;;16.79;76.47
40940;BME280;26666;50.156;7.700;2023-05-29T23:52:14;101095.56;;;16.76;75.20
40940;BME280;26666;50.156;7.700;2023-05-29T23:57:20;101093.44;;;16.80;75.35
